sensor_id;sensor_type;location;lat;lon;timestamp;temperature;humidity
30300;DHT22;17110;52.602;12.998;2023-08-30T00:00:17;14.80;99.90
30300;DHT22;17110;52.602;12.998;2023-08-30T00:01:43;14.80;99.90
30300;DHT22;17110;52.602;12.998;2023-08-30T00:02:13;14.70;99.90
30300;DHT22;17110;52.602;12.998;2023-08-30T00:02:44;14.70;99.90
30300;DHT22;17110;52.602;12.998;2023-08-30T00:03:14;14.70;99.90
30300;DHT22;17110;52.602;12.998;2023-08-30T00:03:45;14.70;99.90
30300;DHT22;17110;52.602;12.998;2023-08-30T00:04:16;14.70;99.90
30300;DHT22;17110;52.602;12.998;2023-08-30T00:04:46;14.70;99.90
30300;DHT22;17110;52.602;12.998;2023-08-30T00:05:18;14.70;99.90
30300;DHT22;17110;52.602;12.998;2023-08-30T00:05:52;14.70;99.90
30300;DHT22;17110;52.602;12.998;2023-08-30T00:06:22;14.70;99.90
30300;DHT22;17110;52.602;12.998;2023-08-30T00:06:53;14.70;99.90
30300;DHT22;17110;52.602;12.998;2023-08-30T00:07:23;14.70;99.90
30300;DHT22;17110;52.602;12.998;2023-08-30T00:07:54;14.70;99.90
30300;DHT22;17110;52.602;12.998;2023-08-30T00:08:40;14.70;99.90
30300;DHT22;17110;52.602;12.998;2023-08-30T00:09:11;14.70;99.90
30300;DHT22;17110;52.602;12.998;2023-08-30T00:09:41;14.70;99.90
30300;DHT22;17110;52.602;12.998;2023-08-30T00:10:12;14.70;99.90
30300;DHT22;17110;52.602;12.998;2023-08-30T00:11:01;14.70;99.90
30300;DHT22;17110;52.602;12.998;2023-08-30T00:11:32;14.70;99.90
30300;DHT22;17110;52.602;12.998;2023-08-30T00:12:03;14.70;99.90
30300;DHT22;17110;52.602;12.998;2023-08-30T00:12:34;14.60;99.90
30300;DHT22;17110;52.602;12.998;2023-08-30T00:13:05;14.70;99.90
30300;DHT22;17110;52.602;12.998;2023-08-30T00:13:35;14.70;99.90
30300;DHT22;17110;52.602;12.998;2023-08-30T00:14:06;14.70;99.90
30300;DHT22;17110;52.602;12.998;2023-08-30T00:14:37;14.70;99.90
30300;DHT22;17110;52.602;12.998;2023-08-30T00:15:08;14.70;99.90
30300;DHT22;17110;52.602;12.998;2023-08-30T00:15:39;14.60;99.90
30300;DHT22;17110;52.602;12.998;2023-08-30T00:16:09;14.60;99.90
30300;DHT22;17110;52.602;12.998;2023-08-30T00:16:40;14.60;99.90
30300;DHT22;17110;52.602;12.998;2023-08-30T00:17:10;14.60;99.90
30300;DHT22;17110;52.602;12.998;2023-08-30T00:17:41;14.60;99.90
30300;DHT22;17110;52.602;12.998;2023-08-30T00:18:12;14.60;99.90
30300;DHT22;17110;52.602;12.998;2023-08-30T00:18:42;14.60;99.90
30300;DHT22;17110;52.602;12.998;2023-08-30T00:19:13;14.60;99.90
30300;DHT22;17110;52.602;12.998;2023-08-30T00:19:44;14.60;99.90
30300;DHT22;17110;52.602;12.998;2023-08-30T00:20:14;14.60;99.90
30300;DHT22;17110;52.602;12.998;2023-08-30T00:20:46;14.60;99.90
30300;DHT22;17110;52.602;12.998;2023-08-30T00:21:17;14.60;99.90
30300;DHT22;17110;52.602;12.998;2023-08-30T00:21:47;14.50;99.90
30300;DHT22;17110;52.602;12.998;2023-08-30T00:22:18;14.50;99.90
30300;DHT22;17110;52.602;12.998;2023-08-30T00:22:49;14.50;99.90
30300;DHT22;17110;52.602;12.998;2023-08-30T00:23:19;14.50;99.90
30300;DHT22;17110;52.602;12.998;2023-08-30T00:23:50;14.50;99.90
30300;DHT22;17110;52.602;12.998;2023-08-30T00:24:22;14.50;99.90
30300;DHT22;17110;52.602;12.998;2023-08-30T00:24:52;14.50;99.90
30300;DHT22;17110;52.602;12.998;2023-08-30T00:25:23;14.50;99.90
30300;DHT22;17110;52.602;12.998;2023-08-30T00:25:54;14.50;99.90
30300;DHT22;17110;52.602;12.998;2023-08-30T00:26:25;14.50;99.90
30300;DHT22;17110;52.602;12.998;2023-08-30T00:26:56;14.50;99.90
30300;DHT22;17110;52.602;12.998;2023-08-30T00:27:26;14.50;99.90
30300;DHT22;17110;52.602;12.998;2023-08-30T00:28:21;14.50;99.90
30300;DHT22;17110;52.602;12.998;2023-08-30T00:28:52;14.40;99.90
30300;DHT22;17110;52.602;12.998;2023-08-30T00:29:23;14.40;99.90
30300;DHT22;17110;52.602;12.998;2023-08-30T00:29:53;14.40;99.90
30300;DHT22;17110;52.602;12.998;2023-08-30T00:30:24;14.40;99.90
30300;DHT22;17110;52.602;12.998;2023-08-30T00:30:55;14.40;99.90
30300;DHT22;17110;52.602;12.998;2023-08-30T00:31:25;14.40;99.90
30300;DHT22;17110;52.602;12.998;2023-08-30T00:31:56;14.40;99.90
30300;DHT22;17110;52.602;12.998;2023-08-30T00:32:27;14.40;99.90
30300;DHT22;17110;52.602;12.998;2023-08-30T00:32:57;14.40;99.90
30300;DHT22;17110;52.602;12.998;2023-08-30T00:33:28;14.40;99.90
30300;DHT22;17110;52.602;12.998;2023-08-30T00:33:59;14.40;99.90
30300;DHT22;17110;52.602;12.998;2023-08-30T00:34:29;14.40;99.90
30300;DHT22;17110;52.602;12.998;2023-08-30T00:35:00;14.40;99.90
30300;DHT22;17110;52.602;12.998;2023-08-30T00:35:30;14.40;99.90
30300;DHT22;17110;52.602;12.998;2023-08-30T00:36:02;14.40;99.90
30300;DHT22;17110;52.602;12.998;2023-08-30T00:36:33;14.40;99.90
30300;DHT22;17110;52.602;12.998;2023-08-30T00:37:04;14.40;99.90
30300;DHT22;17110;52.602;12.998;2023-08-30T00:37:34;14.40;99.90
30300;DHT22;17110;52.602;12.998;2023-08-30T00:38:05;14.40;99.90
30300;DHT22;17110;52.602;12.998;2023-08-30T00:38:36;14.40;99.90
30300;DHT22;17110;52.602;12.998;2023-08-30T00:39:06;14.40;99.90
30300;DHT22;17110;52.602;12.998;2023-08-30T00:39:37;14.40;99.90
30300;DHT22;17110;52.602;12.998;2023-08-30T00:40:08;14.40;99.90
30300;DHT22;17110;52.602;12.998;2023-08-30T00:40:40;14.40;99.90
30300;DHT22;17110;52.602;12.998;2023-08-30T00:41:10;14.40;99.90
30300;DHT22;17110;52.602;12.998;2023-08-30T00:41:41;14.40;99.90
30300;DHT22;17110;52.602;12.998;2023-08-30T00:42:11;14.40;99.90
30300;DHT22;17110;52.602;12.998;2023-08-30T00:42:42;14.40;99.90
30300;DHT22;17110;52.602;12.998;2023-08-30T00:43:13;14.40;99.90
30300;DHT22;17110;52.602;12.998;2023-08-30T00:43:43;14.40;99.90
30300;DHT22;17110;52.602;12.998;2023-08-30T00:44:14;14.40;99.90
30300;DHT22;17110;52.602;12.998;2023-08-30T00:44:45;14.40;99.90
30300;DHT22;17110;52.602;12.998;2023-08-30T00:45:15;14.40;99.90
30300;DHT22;17110;52.602;12.998;2023-08-30T00:45:46;14.40;99.90
30300;DHT22;17110;52.602;12.998;2023-08-30T00:46:17;14.40;99.90
30300;DHT22;17110;52.602;12.998;2023-08-30T00:46:55;14.40;99.90
30300;DHT22;17110;52.602;12.998;2023-08-30T00:47:25;14.40;99.90
30300;DHT22;17110;52.602;12.998;2023-08-30T00:47:56;14.40;99.90
30300;DHT22;17110;52.602;12.998;2023-08-30T00:48:29;14.40;99.90
30300;DHT22;17110;52.602;12.998;2023-08-30T00:48:59;14.40;99.90
30300;DHT22;17110;52.602;12.998;2023-08-30T00:49:30;14.40;99.90
30300;DHT22;17110;52.602;12.998;2023-08-30T00:50:02;14.40;99.90
30300;DHT22;17110;52.602;12.998;2023-08-30T00:50:33;14.40;99.90
30300;DHT22;17110;52.602;12.998;2023-08-30T00:51:06;14.40;99.90
30300;DHT22;17110;52.602;12.998;2023-08-30T00:51:37;14.40;99.90
30300;DHT22;17110;52.602;12.998;2023-08-30T00:52:09;14.40;99.90
30300;DHT22;17110;52.602;12.998;2023-08-30T00:52:40;14.40;99.90
30300;DHT22;17110;52.602;12.998;2023-08-30T00:53:11;14.40;99.90
30300;DHT22;17110;52.602;12.998;2023-08-30T00:53:57;14.40;99.90
30300;DHT22;17110;52.602;12.998;2023-08-30T00:54:28;14.40;99.90
30300;DHT22;17110;52.602;12.998;2023-08-30T00:54:59;14.40;99.90
30300;DHT22;17110;52.602;12.998;2023-08-30T00:55:29;14.40;99.90
30300;DHT22;17110;52.602;12.998;2023-08-30T00:56:00;14.40;99.90
30300;DHT22;17110;52.602;12.998;2023-08-30T00:56:32;14.30;99.90
30300;DHT22;17110;52.602;12.998;2023-08-30T00:57:03;14.30;99.90
30300;DHT22;17110;52.602;12.998;2023-08-30T00:57:34;14.40;99.90
30300;DHT22;17110;52.602;12.998;2023-08-30T00:58:05;14.40;99.90
30300;DHT22;17110;52.602;12.998;2023-08-30T00:58:36;14.40;99.90
30300;DHT22;17110;52.602;12.998;2023-08-30T00:59:07;14.40;99.90
30300;DHT22;17110;52.602;12.998;2023-08-30T00:59:38;14.40;99.90
30300;DHT22;17110;52.602;12.998;2023-08-30T01:00:10;14.40;99.90
30300;DHT22;17110;52.602;12.998;2023-08-30T01:00:41;14.30;99.90
30300;DHT22;17110;52.602;12.998;2023-08-30T01:01:15;14.40;99.90
30300;DHT22;17110;52.602;12.998;2023-08-30T01:01:45;14.30;99.90
30300;DHT22;17110;52.602;12.998;2023-08-30T01:02:16;14.30;99.90
30300;DHT22;17110;52.602;12.998;2023-08-30T01:02:47;14.30;99.90
30300;DHT22;17110;52.602;12.998;2023-08-30T01:03:17;14.30;99.90
30300;DHT22;17110;52.602;12.998;2023-08-30T01:03:48;14.30;99.90
30300;DHT22;17110;52.602;12.998;2023-08-30T01:04:19;14.40;99.90
30300;DHT22;17110;52.602;12.998;2023-08-30T01:04:50;14.30;99.90
30300;DHT22;17110;52.602;12.998;2023-08-30T01:05:20;14.30;99.90
30300;DHT22;17110;52.602;12.998;2023-08-30T01:05:51;14.30;99.90
30300;DHT22;17110;52.602;12.998;2023-08-30T01:06:23;14.30;99.90
30300;DHT22;17110;52.602;12.998;2023-08-30T01:06:54;14.30;99.90
30300;DHT22;17110;52.602;12.998;2023-08-30T01:07:24;14.30;99.90
30300;DHT22;17110;52.602;12.998;2023-08-30T01:07:55;14.30;99.90
30300;DHT22;17110;52.602;12.998;2023-08-30T01:08:26;14.30;99.90
30300;DHT22;17110;52.602;12.998;2023-08-30T01:08:57;14.20;99.90
30300;DHT22;17110;52.602;12.998;2023-08-30T01:09:27;14.20;99.90
30300;DHT22;17110;52.602;12.998;2023-08-30T01:09:58;14.20;99.90
30300;DHT22;17110;52.602;12.998;2023-08-30T01:10:39;14.20;99.90
30300;DHT22;17110;52.602;12.998;2023-08-30T01:11:15;14.20;99.90
30300;DHT22;17110;52.602;12.998;2023-08-30T01:12:10;14.10;99.90
30300;DHT22;17110;52.602;12.998;2023-08-30T01:12:47;14.20;99.90
30300;DHT22;17110;52.602;12.998;2023-08-30T01:13:19;14.10;99.90
30300;DHT22;17110;52.602;12.998;2023-08-30T01:13:54;14.10;99.90
30300;DHT22;17110;52.602;12.998;2023-08-30T01:14:30;14.20;99.90
30300;DHT22;17110;52.602;12.998;2023-08-30T01:15:06;14.20;99.90
30300;DHT22;17110;52.602;12.998;2023-08-30T01:15:38;14.20;99.90
30300;DHT22;17110;52.602;12.998;2023-08-30T01:16:09;14.20;99.90
30300;DHT22;17110;52.602;12.998;2023-08-30T01:16:39;14.10;99.90
30300;DHT22;17110;52.602;12.998;2023-08-30T01:17:11;14.20;99.90
30300;DHT22;17110;52.602;12.998;2023-08-30T01:17:44;14.20;99.90
30300;DHT22;17110;52.602;12.998;2023-08-30T01:18:35;14.20;99.90
30300;DHT22;17110;52.602;12.998;2023-08-30T01:19:18;14.20;99.90
30300;DHT22;17110;52.602;12.998;2023-08-30T01:20:05;14.20;99.90
30300;DHT22;17110;52.602;12.998;2023-08-30T01:20:39;14.20;99.90
30300;DHT22;17110;52.602;12.998;2023-08-30T01:21:18;14.10;99.90
30300;DHT22;17110;52.602;12.998;2023-08-30T01:22:02;14.20;99.90
30300;DHT22;17110;52.602;12.998;2023-08-30T01:22:44;14.10;99.90
30300;DHT22;17110;52.602;12.998;2023-08-30T01:23:24;14.10;99.90
30300;DHT22;17110;52.602;12.998;2023-08-30T01:23:59;14.10;99.90
30300;DHT22;17110;52.602;12.998;2023-08-30T01:24:40;14.10;99.90
30300;DHT22;17110;52.602;12.998;2023-08-30T01:25:31;14.10;99.90
30300;DHT22;17110;52.602;12.998;2023-08-30T01:26:07;14.20;99.90
30300;DHT22;17110;52.602;12.998;2023-08-30T01:27:23;14.20;99.90
30300;DHT22;17110;52.602;12.998;2023-08-30T01:27:56;14.20;99.90
30300;DHT22;17110;52.602;12.998;2023-08-30T01:28:39;14.20;99.90
30300;DHT22;17110;52.602;12.998;2023-08-30T01:29:11;14.20;99.90
30300;DHT22;17110;52.602;12.998;2023-08-30T01:29:44;14.20;99.90
30300;DHT22;17110;52.602;12.998;2023-08-30T01:30:17;14.20;99.90
30300;DHT22;17110;52.602;12.998;2023-08-30T01:30:49;14.20;99.90
30300;DHT22;17110;52.602;12.998;2023-08-30T01:31:21;14.20;99.90
30300;DHT22;17110;52.602;12.998;2023-08-30T01:31:53;14.20;99.90
30300;DHT22;17110;52.602;12.998;2023-08-30T01:32:29;14.20;99.90
30300;DHT22;17110;52.602;12.998;2023-08-30T01:33:00;14.20;99.90
30300;DHT22;17110;52.602;12.998;2023-08-30T01:33:31;14.20;99.90
30300;DHT22;17110;52.602;12.998;2023-08-30T01:34:05;14.20;99.90
30300;DHT22;17110;52.602;12.998;2023-08-30T01:34:37;14.20;99.90
30300;DHT22;17110;52.602;12.998;2023-08-30T01:35:09;14.20;99.90
30300;DHT22;17110;52.602;12.998;2023-08-30T01:35:57;14.30;99.90
30300;DHT22;17110;52.602;12.998;2023-08-30T01:36:29;14.30;99.90
30300;DHT22;17110;52.602;12.998;2023-08-30T01:37:00;14.20;99.90
30300;DHT22;17110;52.602;12.998;2023-08-30T01:37:32;14.30;99.90
30300;DHT22;17110;52.602;12.998;2023-08-30T01:38:03;14.30;99.90
30300;DHT22;17110;52.602;12.998;2023-08-30T01:38:35;14.30;99.90
30300;DHT22;17110;52.602;12.998;2023-08-30T01:39:07;14.30;99.90
30300;DHT22;17110;52.602;12.998;2023-08-30T01:39:38;14.30;99.90
30300;DHT22;17110;52.602;12.998;2023-08-30T01:40:11;14.30;99.90
30300;DHT22;17110;52.602;12.998;2023-08-30T01:40:42;14.30;99.90
30300;DHT22;17110;52.602;12.998;2023-08-30T01:41:14;14.30;99.90
30300;DHT22;17110;52.602;12.998;2023-08-30T01:41:46;14.30;99.90
30300;DHT22;17110;52.602;12.998;2023-08-30T01:42:17;14.30;99.90
30300;DHT22;17110;52.602;12.998;2023-08-30T01:42:50;14.30;99.90
30300;DHT22;17110;52.602;12.998;2023-08-30T01:43:22;14.30;99.90
30300;DHT22;17110;52.602;12.998;2023-08-30T01:43:53;14.30;99.90
30300;DHT22;17110;52.602;12.998;2023-08-30T01:44:24;14.30;99.90
30300;DHT22;17110;52.602;12.998;2023-08-30T01:44:58;14.30;99.90
30300;DHT22;17110;52.602;12.998;2023-08-30T01:45:32;14.30;99.90
30300;DHT22;17110;52.602;12.998;2023-08-30T01:46:05;14.30;99.90
30300;DHT22;17110;52.602;12.998;2023-08-30T01:46:37;14.30;99.90
30300;DHT22;17110;52.602;12.998;2023-08-30T01:47:09;14.30;99.90
30300;DHT22;17110;52.602;12.998;2023-08-30T01:47:41;14.30;99.90
30300;DHT22;17110;52.602;12.998;2023-08-30T01:48:15;14.30;99.90
30300;DHT22;17110;52.602;12.998;2023-08-30T01:48:46;14.30;99.90
30300;DHT22;17110;52.602;12.998;2023-08-30T01:49:18;14.30;99.90
30300;DHT22;17110;52.602;12.998;2023-08-30T01:49:49;14.30;99.90
30300;DHT22;17110;52.602;12.998;2023-08-30T01:50:27;14.30;99.90
30300;DHT22;17110;52.602;12.998;2023-08-30T01:53:39;14.20;99.90
30300;DHT22;17110;52.602;12.998;2023-08-30T01:54:17;14.20;99.90
30300;DHT22;17110;52.602;12.998;2023-08-30T01:55:09;14.20;99.90
30300;DHT22;17110;52.602;12.998;2023-08-30T01:55:41;14.30;99.90
30300;DHT22;17110;52.602;12.998;2023-08-30T01:56:12;14.30;99.90
30300;DHT22;17110;52.602;12.998;2023-08-30T01:56:43;14.20;99.90
30300;DHT22;17110;52.602;12.998;2023-08-30T01:57:14;14.30;99.90
30300;DHT22;17110;52.602;12.998;2023-08-30T01:57:45;14.30;99.90
30300;DHT22;17110;52.602;12.998;2023-08-30T01:58:17;14.30;99.90
30300;DHT22;17110;52.602;12.998;2023-08-30T01:58:47;14.30;99.90
30300;DHT22;17110;52.602;12.998;2023-08-30T01:59:18;14.30;99.90
30300;DHT22;17110;52.602;12.998;2023-08-30T01:59:49;14.30;99.90
30300;DHT22;17110;52.602;12.998;2023-08-30T02:00:19;14.30;99.90
30300;DHT22;17110;52.602;12.998;2023-08-30T02:00:51;14.40;99.90
30300;DHT22;17110;52.602;12.998;2023-08-30T02:01:21;14.40;99.90
30300;DHT22;17110;52.602;12.998;2023-08-30T02:01:52;14.40;99.90
30300;DHT22;17110;52.602;12.998;2023-08-30T02:02:22;14.40;99.90
30300;DHT22;17110;52.602;12.998;2023-08-30T02:02:53;14.40;99.90
30300;DHT22;17110;52.602;12.998;2023-08-30T02:03:24;14.40;99.90
30300;DHT22;17110;52.602;12.998;2023-08-30T02:03:54;14.40;99.90
30300;DHT22;17110;52.602;12.998;2023-08-30T02:04:25;14.50;99.90
30300;DHT22;17110;52.602;12.998;2023-08-30T02:04:56;14.50;99.90
30300;DHT22;17110;52.602;12.998;2023-08-30T02:05:26;14.50;99.90
30300;DHT22;17110;52.602;12.998;2023-08-30T02:06:03;14.50;99.90
30300;DHT22;17110;52.602;12.998;2023-08-30T02:06:42;14.50;99.90
30300;DHT22;17110;52.602;12.998;2023-08-30T02:07:17;14.50;99.90
30300;DHT22;17110;52.602;12.998;2023-08-30T02:07:56;14.50;99.90
30300;DHT22;17110;52.602;12.998;2023-08-30T02:08:35;14.50;99.90
30300;DHT22;17110;52.602;12.998;2023-08-30T02:09:12;14.50;99.90
30300;DHT22;17110;52.602;12.998;2023-08-30T02:09:49;14.50;99.90
30300;DHT22;17110;52.602;12.998;2023-08-30T02:10:23;14.50;99.90
30300;DHT22;17110;52.602;12.998;2023-08-30T02:10:56;14.50;99.90
30300;DHT22;17110;52.602;12.998;2023-08-30T02:11:33;14.50;99.90
30300;DHT22;17110;52.602;12.998;2023-08-30T02:12:07;14.50;99.90
30300;DHT22;17110;52.602;12.998;2023-08-30T02:12:44;14.50;99.90
30300;DHT22;17110;52.602;12.998;2023-08-30T02:13:23;14.50;99.90
30300;DHT22;17110;52.602;12.998;2023-08-30T02:13:58;14.40;99.90
30300;DHT22;17110;52.602;12.998;2023-08-30T02:14:30;14.40;99.90
30300;DHT22;17110;52.602;12.998;2023-08-30T02:15:02;14.40;99.90
30300;DHT22;17110;52.602;12.998;2023-08-30T02:15:35;14.40;99.90
30300;DHT22;17110;52.602;12.998;2023-08-30T02:16:07;14.40;99.90
30300;DHT22;17110;52.602;12.998;2023-08-30T02:16:46;14.40;99.90
30300;DHT22;17110;52.602;12.998;2023-08-30T02:17:17;14.40;99.90
30300;DHT22;17110;52.602;12.998;2023-08-30T02:17:48;14.40;99.90
30300;DHT22;17110;52.602;12.998;2023-08-30T02:18:19;14.40;99.90
30300;DHT22;17110;52.602;12.998;2023-08-30T02:18:50;14.40;99.90
30300;DHT22;17110;52.602;12.998;2023-08-30T02:19:21;14.40;99.90
30300;DHT22;17110;52.602;12.998;2023-08-30T02:19:52;14.40;99.90
30300;DHT22;17110;52.602;12.998;2023-08-30T02:20:23;14.40;99.90
30300;DHT22;17110;52.602;12.998;2023-08-30T02:20:54;14.40;99.90
30300;DHT22;17110;52.602;12.998;2023-08-30T02:21:25;14.40;99.90
30300;DHT22;17110;52.602;12.998;2023-08-30T02:21:56;14.40;99.90
30300;DHT22;17110;52.602;12.998;2023-08-30T02:22:27;14.40;99.90
30300;DHT22;17110;52.602;12.998;2023-08-30T02:22:58;14.40;99.90
30300;DHT22;17110;52.602;12.998;2023-08-30T02:23:29;14.40;99.90
30300;DHT22;17110;52.602;12.998;2023-08-30T02:24:01;14.40;99.90
30300;DHT22;17110;52.602;12.998;2023-08-30T02:24:35;14.40;99.90
30300;DHT22;17110;52.602;12.998;2023-08-30T02:25:06;14.40;99.90
30300;DHT22;17110;52.602;12.998;2023-08-30T02:25:37;14.40;99.90
30300;DHT22;17110;52.602;12.998;2023-08-30T02:26:08;14.40;99.90
30300;DHT22;17110;52.602;12.998;2023-08-30T02:26:39;14.40;99.90
30300;DHT22;17110;52.602;12.998;2023-08-30T02:27:13;14.40;99.90
30300;DHT22;17110;52.602;12.998;2023-08-30T02:27:47;14.40;99.90
30300;DHT22;17110;52.602;12.998;2023-08-30T02:28:19;14.40;99.90
30300;DHT22;17110;52.602;12.998;2023-08-30T02:28:49;14.40;99.90
30300;DHT22;17110;52.602;12.998;2023-08-30T02:29:20;14.40;99.90
30300;DHT22;17110;52.602;12.998;2023-08-30T02:29:51;14.40;99.90
30300;DHT22;17110;52.602;12.998;2023-08-30T02:30:21;14.40;99.90
30300;DHT22;17110;52.602;12.998;2023-08-30T02:30:53;14.40;99.90
30300;DHT22;17110;52.602;12.998;2023-08-30T02:31:23;14.40;99.90
30300;DHT22;17110;52.602;12.998;2023-08-30T02:31:54;14.40;99.90
30300;DHT22;17110;52.602;12.998;2023-08-30T02:32:26;14.40;99.90
30300;DHT22;17110;52.602;12.998;2023-08-30T02:32:56;14.40;99.90
30300;DHT22;17110;52.602;12.998;2023-08-30T02:33:27;14.40;99.90
30300;DHT22;17110;52.602;12.998;2023-08-30T02:33:58;14.40;99.90
30300;DHT22;17110;52.602;12.998;2023-08-30T02:34:28;14.40;99.90
30300;DHT22;17110;52.602;12.998;2023-08-30T02:34:59;14.40;99.90
30300;DHT22;17110;52.602;12.998;2023-08-30T02:35:30;14.40;99.90
30300;DHT22;17110;52.602;12.998;2023-08-30T02:36:01;14.40;99.90
30300;DHT22;17110;52.602;12.998;2023-08-30T02:36:32;14.40;99.90
30300;DHT22;17110;52.602;12.998;2023-08-30T02:37:02;14.40;99.90
30300;DHT22;17110;52.602;12.998;2023-08-30T02:37:33;14.40;99.90
30300;DHT22;17110;52.602;12.998;2023-08-30T02:38:04;14.40;99.90
30300;DHT22;17110;52.602;12.998;2023-08-30T02:38:34;14.40;99.90
30300;DHT22;17110;52.602;12.998;2023-08-30T02:39:05;14.40;99.90
30300;DHT22;17110;52.602;12.998;2023-08-30T02:39:36;14.40;99.90
30300;DHT22;17110;52.602;12.998;2023-08-30T02:40:07;14.40;99.90
30300;DHT22;17110;52.602;12.998;2023-08-30T02:40:38;14.40;99.90
30300;DHT22;17110;52.602;12.998;2023-08-30T02:41:08;14.40;99.90
30300;DHT22;17110;52.602;12.998;2023-08-30T02:41:39;14.40;99.90
30300;DHT22;17110;52.602;12.998;2023-08-30T02:42:10;14.40;99.90
30300;DHT22;17110;52.602;12.998;2023-08-30T02:42:40;14.40;99.90
30300;DHT22;17110;52.602;12.998;2023-08-30T02:43:11;14.40;99.90
30300;DHT22;17110;52.602;12.998;2023-08-30T02:43:43;14.40;99.90
30300;DHT22;17110;52.602;12.998;2023-08-30T02:44:14;14.40;99.90
30300;DHT22;17110;52.602;12.998;2023-08-30T02:44:46;14.40;99.90
30300;DHT22;17110;52.602;12.998;2023-08-30T02:45:16;14.40;99.90
30300;DHT22;17110;52.602;12.998;2023-08-30T02:45:47;14.40;99.90
30300;DHT22;17110;52.602;12.998;2023-08-30T02:46:18;14.40;99.90
30300;DHT22;17110;52.602;12.998;2023-08-30T02:46:49;14.40;99.90
30300;DHT22;17110;52.602;12.998;2023-08-30T02:47:20;14.40;99.90
30300;DHT22;17110;52.602;12.998;2023-08-30T02:47:50;14.40;99.90
30300;DHT22;17110;52.602;12.998;2023-08-30T02:48:21;14.50;99.90
30300;DHT22;17110;52.602;12.998;2023-08-30T02:48:52;14.50;99.90
30300;DHT22;17110;52.602;12.998;2023-08-30T02:49:22;14.50;99.90
30300;DHT22;17110;52.602;12.998;2023-08-30T02:49:53;14.50;99.90
30300;DHT22;17110;52.602;12.998;2023-08-30T02:50:23;14.50;99.90
30300;DHT22;17110;52.602;12.998;2023-08-30T02:50:54;14.50;99.90
30300;DHT22;17110;52.602;12.998;2023-08-30T02:51:25;14.50;99.90
30300;DHT22;17110;52.602;12.998;2023-08-30T02:51:55;14.50;99.90
30300;DHT22;17110;52.602;12.998;2023-08-30T02:52:26;14.50;99.90
30300;DHT22;17110;52.602;12.998;2023-08-30T02:52:57;14.50;99.90
30300;DHT22;17110;52.602;12.998;2023-08-30T02:53:27;14.50;99.90
30300;DHT22;17110;52.602;12.998;2023-08-30T02:53:58;14.50;99.90
30300;DHT22;17110;52.602;12.998;2023-08-30T02:54:29;14.50;99.90
30300;DHT22;17110;52.602;12.998;2023-08-30T02:54:59;14.50;99.90
30300;DHT22;17110;52.602;12.998;2023-08-30T02:55:30;14.50;99.90
30300;DHT22;17110;52.602;12.998;2023-08-30T02:56:01;14.50;99.90
30300;DHT22;17110;52.602;12.998;2023-08-30T02:56:32;14.50;99.90
30300;DHT22;17110;52.602;12.998;2023-08-30T02:57:03;14.50;99.90
30300;DHT22;17110;52.602;12.998;2023-08-30T02:57:34;14.40;99.90
30300;DHT22;17110;52.602;12.998;2023-08-30T02:58:05;14.40;99.90
30300;DHT22;17110;52.602;12.998;2023-08-30T02:58:36;14.40;99.90
30300;DHT22;17110;52.602;12.998;2023-08-30T02:59:08;14.40;99.90
30300;DHT22;17110;52.602;12.998;2023-08-30T02:59:38;14.40;99.90
30300;DHT22;17110;52.602;12.998;2023-08-30T03:00:11;14.40;99.90
30300;DHT22;17110;52.602;12.998;2023-08-30T03:00:42;14.40;99.90
30300;DHT22;17110;52.602;12.998;2023-08-30T03:01:14;14.40;99.90
30300;DHT22;17110;52.602;12.998;2023-08-30T03:01:44;14.40;99.90
30300;DHT22;17110;52.602;12.998;2023-08-30T03:02:17;14.40;99.90
30300;DHT22;17110;52.602;12.998;2023-08-30T03:02:59;14.40;99.90
30300;DHT22;17110;52.602;12.998;2023-08-30T03:03:30;14.40;99.90
30300;DHT22;17110;52.602;12.998;2023-08-30T03:04:01;14.40;99.90
30300;DHT22;17110;52.602;12.998;2023-08-30T03:04:31;14.40;99.90
30300;DHT22;17110;52.602;12.998;2023-08-30T03:05:25;14.40;99.90
30300;DHT22;17110;52.602;12.998;2023-08-30T03:05:56;14.40;99.90
30300;DHT22;17110;52.602;12.998;2023-08-30T03:06:28;14.40;99.90
30300;DHT22;17110;52.602;12.998;2023-08-30T03:06:58;14.40;99.90
30300;DHT22;17110;52.602;12.998;2023-08-30T03:07:31;14.40;99.90
30300;DHT22;17110;52.602;12.998;2023-08-30T03:08:02;14.40;99.90
30300;DHT22;17110;52.602;12.998;2023-08-30T03:08:33;14.40;99.90
30300;DHT22;17110;52.602;12.998;2023-08-30T03:09:04;14.40;99.90
30300;DHT22;17110;52.602;12.998;2023-08-30T03:09:38;14.40;99.90
30300;DHT22;17110;52.602;12.998;2023-08-30T03:10:09;14.40;99.90
30300;DHT22;17110;52.602;12.998;2023-08-30T03:10:41;14.40;99.90
30300;DHT22;17110;52.602;12.998;2023-08-30T03:11:13;14.40;99.90
30300;DHT22;17110;52.602;12.998;2023-08-30T03:11:51;14.40;99.90
30300;DHT22;17110;52.602;12.998;2023-08-30T03:12:22;14.40;99.90
30300;DHT22;17110;52.602;12.998;2023-08-30T03:12:53;14.40;99.90
30300;DHT22;17110;52.602;12.998;2023-08-30T03:13:23;14.40;99.90
30300;DHT22;17110;52.602;12.998;2023-08-30T03:13:54;14.40;99.90
30300;DHT22;17110;52.602;12.998;2023-08-30T03:14:26;14.40;99.90
30300;DHT22;17110;52.602;12.998;2023-08-30T03:14:57;14.40;99.90
30300;DHT22;17110;52.602;12.998;2023-08-30T03:15:30;14.40;99.90
30300;DHT22;17110;52.602;12.998;2023-08-30T03:16:01;14.40;99.90
30300;DHT22;17110;52.602;12.998;2023-08-30T03:16:33;14.40;99.90
30300;DHT22;17110;52.602;12.998;2023-08-30T03:17:03;14.40;99.90
30300;DHT22;17110;52.602;12.998;2023-08-30T03:17:35;14.40;99.90
30300;DHT22;17110;52.602;12.998;2023-08-30T03:18:06;14.40;99.90
30300;DHT22;17110;52.602;12.998;2023-08-30T03:18:36;14.40;99.90
30300;DHT22;17110;52.602;12.998;2023-08-30T03:19:07;14.40;99.90
30300;DHT22;17110;52.602;12.998;2023-08-30T03:19:38;14.40;99.90
30300;DHT22;17110;52.602;12.998;2023-08-30T03:20:09;14.40;99.90
30300;DHT22;17110;52.602;12.998;2023-08-30T03:20:40;14.40;99.90
30300;DHT22;17110;52.602;12.998;2023-08-30T03:21:11;14.40;99.90
30300;DHT22;17110;52.602;12.998;2023-08-30T03:21:43;14.40;99.90
30300;DHT22;17110;52.602;12.998;2023-08-30T03:22:35;14.40;99.90
30300;DHT22;17110;52.602;12.998;2023-08-30T03:23:06;14.40;99.90
30300;DHT22;17110;52.602;12.998;2023-08-30T03:23:38;14.30;99.90
30300;DHT22;17110;52.602;12.998;2023-08-30T03:24:09;14.30;99.90
30300;DHT22;17110;52.602;12.998;2023-08-30T03:24:40;14.40;99.90
30300;DHT22;17110;52.602;12.998;2023-08-30T03:25:11;14.30;99.90
30300;DHT22;17110;52.602;12.998;2023-08-30T03:25:43;14.30;99.90